createdAt,value
2017-09-11T00:00:26.886Z,13.7
2017-09-11T00:01:29.060Z,13.6
2017-09-11T00:02:31.509Z,13.6
2017-09-11T00:03:33.631Z,13.6
2017-09-11T00:04:36.019Z,13.6
2017-09-11T00:05:38.129Z,13.5
2017-09-11T00:06:40.274Z,13.4
2017-09-11T00:07:42.315Z,13.6
2017-09-11T00:08:44.571Z,13.5
2017-09-11T00:09:47.071Z,13.6
2017-09-11T00:10:49.173Z,13.6
2017-09-11T00:11:51.311Z,13.6
2017-09-11T00:12:53.401Z,13.8
2017-09-11T00:13:55.531Z,13.7
2017-09-11T00:14:57.978Z,13.8
2017-09-11T00:16:00.092Z,13.7
2017-09-11T00:17:02.246Z,13.7
2017-09-11T00:18:04.395Z,13.7
2017-09-11T00:19:06.571Z,13.7
2017-09-11T00:20:09.228Z,13.8
2017-09-11T00:21:11.320Z,13.8
2017-09-11T00:22:13.398Z,13.8
2017-09-11T00:23:15.525Z,13.7
2017-09-11T00:24:17.602Z,13.7
2017-09-11T00:25:20.026Z,13.7
2017-09-11T00:26:22.137Z,13.8
2017-09-11T00:27:24.216Z,13.8
2017-09-11T00:28:26.319Z,13.8
2017-09-11T00:29:28.437Z,13.8
2017-09-11T00:30:31.073Z,13.8
2017-09-11T00:31:35.464Z,13.7
2017-09-11T00:32:37.637Z,13.8
2017-09-11T00:33:39.810Z,13.8
2017-09-11T00:34:41.943Z,13.9
2017-09-11T00:35:44.335Z,13.8
2017-09-11T00:36:46.501Z,13.7
2017-09-11T00:37:48.670Z,13.8
2017-09-11T00:38:50.743Z,13.8
2017-09-11T00:39:52.915Z,13.8
2017-09-11T00:40:55.585Z,13.8
2017-09-11T00:41:57.751Z,13.8
2017-09-11T00:43:02.398Z,13.8
2017-09-11T00:44:04.545Z,13.8
2017-09-11T00:45:08.233Z,13.8
2017-09-11T00:46:10.742Z,13.9
2017-09-11T00:47:13.290Z,13.8
2017-09-11T00:48:15.443Z,13.8
2017-09-11T00:49:17.610Z,13.7
2017-09-11T00:50:19.867Z,13.9
2017-09-11T00:51:24.890Z,13.9
2017-09-11T00:52:27.044Z,13.9
2017-09-11T00:53:29.169Z,13.8
2017-09-11T00:54:31.424Z,13.9
2017-09-11T00:55:33.510Z,13.8
2017-09-11T00:56:35.903Z,13.7
2017-09-11T00:57:38.019Z,13.7
2017-09-11T00:58:40.173Z,13.8
2017-09-11T00:59:42.556Z,13.9
2017-09-11T01:00:44.963Z,13.9
2017-09-11T01:01:47.478Z,13.9
2017-09-11T01:02:49.639Z,13.9
2017-09-11T01:03:51.780Z,13.8
2017-09-11T01:04:53.978Z,13.8
2017-09-11T01:05:56.221Z,13.8
2017-09-11T01:06:58.669Z,13.8
2017-09-11T01:08:00.869Z,13.8
2017-09-11T01:09:02.987Z,13.8
2017-09-11T01:10:05.330Z,13.6
2017-09-11T01:11:07.426Z,13.8
2017-09-11T01:12:10.068Z,13.7
2017-09-11T01:13:12.201Z,13.7
2017-09-11T01:14:14.358Z,13.7
2017-09-11T01:15:16.513Z,13.7
2017-09-11T01:16:18.653Z,13.7
2017-09-11T01:17:21.168Z,13.7
2017-09-11T01:18:23.213Z,13.8
2017-09-11T01:19:25.352Z,13.8
2017-09-11T01:20:27.622Z,13.7
2017-09-11T01:21:29.906Z,13.7
2017-09-11T01:22:32.346Z,13.7
2017-09-11T01:23:34.428Z,13.7
2017-09-11T01:24:36.519Z,13.6
2017-09-11T01:25:38.585Z,13.7
2017-09-11T01:26:40.720Z,13.6
2017-09-11T01:27:43.420Z,13.7
2017-09-11T01:28:45.510Z,13.7
2017-09-11T01:29:47.601Z,13.6
2017-09-11T01:30:49.651Z,13.7
2017-09-11T01:31:51.713Z,13.7
2017-09-11T01:32:55.356Z,13.7
2017-09-11T01:33:57.480Z,13.7
2017-09-11T01:34:59.660Z,13.5
2017-09-11T01:36:01.767Z,13.6
2017-09-11T01:37:03.850Z,13.6
2017-09-11T01:38:06.566Z,13.7
2017-09-11T01:39:08.618Z,13.7
2017-09-11T01:40:10.712Z,13.8
2017-09-11T01:41:12.901Z,13.7
2017-09-11T01:42:15.261Z,13.8
2017-09-11T01:43:18.267Z,13.7
2017-09-11T01:44:20.453Z,13.7
2017-09-11T01:45:22.560Z,13.8
2017-09-11T01:46:24.623Z,13.8
2017-09-11T01:47:26.862Z,13.7
2017-09-11T01:48:29.463Z,13.7
2017-09-11T01:49:32.942Z,13.7
2017-09-11T01:50:35.113Z,13.7
2017-09-11T01:51:37.367Z,13.7
2017-09-11T01:52:40.046Z,13.7
2017-09-11T01:53:42.899Z,13.8
2017-09-11T01:54:44.952Z,13.8
2017-09-11T01:55:47.031Z,13.8
2017-09-11T01:56:49.181Z,13.8
2017-09-11T01:57:52.186Z,13.7
2017-09-11T01:58:54.951Z,13.7
2017-09-11T01:59:57.064Z,13.8
2017-09-11T02:00:59.209Z,13.8
2017-09-11T02:02:01.369Z,13.8
2017-09-11T02:03:03.723Z,13.7
2017-09-11T02:04:06.274Z,13.8
2017-09-11T02:05:08.495Z,13.8
2017-09-11T02:06:10.674Z,13.7
2017-09-11T02:07:12.796Z,13.7
2017-09-11T02:08:14.946Z,13.7
2017-09-11T02:09:17.414Z,13.8
2017-09-11T02:10:19.578Z,13.8
2017-09-11T02:11:21.668Z,13.8
2017-09-11T02:12:23.931Z,13.9
2017-09-11T02:13:26.263Z,13.9
2017-09-11T02:14:28.763Z,13.9
2017-09-11T02:15:31.000Z,13.9
2017-09-11T02:16:33.100Z,13.9
2017-09-11T02:17:35.208Z,13.9
2017-09-11T02:18:37.291Z,13.8
2017-09-11T02:19:39.705Z,13.8
2017-09-11T02:20:41.749Z,13.9
2017-09-11T02:21:43.839Z,13.9
2017-09-11T02:22:45.908Z,13.9
2017-09-11T02:23:48.051Z,13.9
2017-09-11T02:24:50.708Z,13.9
2017-09-11T02:25:52.778Z,13.9
2017-09-11T02:26:57.052Z,13.9
2017-09-11T02:27:59.166Z,14
2017-09-11T02:29:01.318Z,14.1
2017-09-11T02:30:03.765Z,14
2017-09-11T02:31:05.960Z,14
2017-09-11T02:32:08.099Z,14
2017-09-11T02:33:10.273Z,14
2017-09-11T02:34:12.548Z,14
2017-09-11T02:35:15.145Z,14
2017-09-11T02:36:18.980Z,14.1
2017-09-11T02:37:21.129Z,14.1
2017-09-11T02:38:23.289Z,14.1
2017-09-11T02:39:25.527Z,14.1
2017-09-11T02:40:27.922Z,14.1
2017-09-11T02:41:30.107Z,14.1
2017-09-11T02:42:32.325Z,14.1
2017-09-11T02:43:34.566Z,14.1
2017-09-11T02:44:38.860Z,14.2
2017-09-11T02:45:41.339Z,14.1
2017-09-11T02:46:43.442Z,14.2
2017-09-11T02:47:45.527Z,14.2
2017-09-11T02:48:47.663Z,14.1
2017-09-11T02:49:49.881Z,14.2
2017-09-11T02:50:52.252Z,14.2
2017-09-11T02:51:54.566Z,14.2
2017-09-11T02:52:56.674Z,14.2
2017-09-11T02:53:58.886Z,14.3
2017-09-11T02:55:01.092Z,14.2
2017-09-11T02:56:03.650Z,14.2
2017-09-11T02:57:05.778Z,14.3
2017-09-11T02:58:07.926Z,14.2
2017-09-11T02:59:10.027Z,14.3
2017-09-11T03:00:12.248Z,14.3
2017-09-11T03:01:14.649Z,14.3
2017-09-11T03:02:16.772Z,14.3
2017-09-11T03:03:19.347Z,14.3
2017-09-11T03:04:22.606Z,14.3
2017-09-11T03:05:24.779Z,14.3
2017-09-11T03:06:27.163Z,14.3
2017-09-11T03:07:29.283Z,14.3
2017-09-11T03:08:31.381Z,14.2
2017-09-11T03:09:33.476Z,14.3
2017-09-11T03:10:35.572Z,14.2
2017-09-11T03:11:40.089Z,14.3
2017-09-11T03:12:42.432Z,14.3
2017-09-11T03:13:44.572Z,14.3
2017-09-11T03:14:46.689Z,14.3
2017-09-11T03:15:48.802Z,14.3
2017-09-11T03:16:51.242Z,14.3
2017-09-11T03:17:53.666Z,14.4
2017-09-11T03:18:55.820Z,14.3
2017-09-11T03:19:57.951Z,14.3
2017-09-11T03:21:00.037Z,14.3
2017-09-11T03:22:02.680Z,14.4
2017-09-11T03:23:04.934Z,14.3
2017-09-11T03:24:07.060Z,14.3
2017-09-11T03:25:09.184Z,14.3
2017-09-11T03:26:11.265Z,14.3
2017-09-11T03:27:13.761Z,14.3
2017-09-11T03:28:16.417Z,14.2
2017-09-11T03:29:18.917Z,14.3
2017-09-11T03:30:21.076Z,14.3
2017-09-11T03:31:23.206Z,14.2
2017-09-11T03:32:25.755Z,14.2
2017-09-11T03:33:27.909Z,14.3
2017-09-11T03:34:30.186Z,14.2
2017-09-11T03:35:32.314Z,14.2
2017-09-11T03:36:34.792Z,14.2
2017-09-11T03:37:37.228Z,14.2
2017-09-11T03:38:39.342Z,14.3
2017-09-11T03:39:41.757Z,14.2
2017-09-11T03:40:43.825Z,14.2
2017-09-11T03:41:45.969Z,14.2
2017-09-11T03:42:48.471Z,14.2
2017-09-11T03:43:50.594Z,14.2
2017-09-11T03:44:52.870Z,14.2
2017-09-11T03:45:55.014Z,14.2
2017-09-11T03:46:57.061Z,14.1
2017-09-11T03:47:59.518Z,14.1
2017-09-11T03:49:01.625Z,14.2
2017-09-11T03:50:03.704Z,14.1
2017-09-11T03:51:06.395Z,14.1
2017-09-11T03:52:08.526Z,14.2
2017-09-11T03:53:10.951Z,14.1
2017-09-11T03:54:13.096Z,14.1
2017-09-11T03:55:15.230Z,14
2017-09-11T03:56:17.463Z,14
2017-09-11T03:57:19.789Z,14
2017-09-11T03:58:22.276Z,14
2017-09-11T03:59:24.512Z,14
2017-09-11T04:00:26.580Z,14
2017-09-11T04:01:28.764Z,14
2017-09-11T04:02:30.898Z,14
2017-09-11T04:03:33.345Z,14
2017-09-11T04:04:35.511Z,13.9
2017-09-11T04:05:37.704Z,13.9
2017-09-11T04:06:39.890Z,14
2017-09-11T04:07:42.251Z,13.9
2017-09-11T04:08:44.731Z,13.9
2017-09-11T04:09:46.786Z,14
2017-09-11T04:10:49.070Z,14
2017-09-11T04:11:51.177Z,14
2017-09-11T04:12:53.220Z,14
2017-09-11T04:13:55.624Z,14
2017-09-11T04:14:57.701Z,14
2017-09-11T04:15:59.827Z,13.9
2017-09-11T04:17:01.926Z,14
2017-09-11T04:18:05.336Z,14
2017-09-11T04:19:07.815Z,14
2017-09-11T04:20:09.927Z,14
2017-09-11T04:21:12.284Z,14
2017-09-11T04:22:14.474Z,14
2017-09-11T04:23:16.643Z,14
2017-09-11T04:24:19.134Z,14
2017-09-11T04:25:21.290Z,14
2017-09-11T04:26:23.452Z,14
2017-09-11T04:27:25.627Z,14
2017-09-11T04:28:28.000Z,14
2017-09-11T04:29:30.459Z,13.9
2017-09-11T04:30:32.671Z,14
2017-09-11T04:31:34.808Z,14
2017-09-11T04:32:36.942Z,14
2017-09-11T04:33:39.716Z,14
2017-09-11T04:34:42.269Z,13.9
2017-09-11T04:35:44.418Z,13.9
2017-09-11T04:36:46.616Z,14
2017-09-11T04:37:48.764Z,14.1
2017-09-11T04:38:50.946Z,14.1
2017-09-11T04:39:53.747Z,14
2017-09-11T04:40:55.871Z,14
2017-09-11T04:41:58.050Z,14.1
2017-09-11T04:43:00.123Z,14
2017-09-11T04:44:02.243Z,14
2017-09-11T04:45:04.695Z,14
2017-09-11T04:46:06.851Z,14
2017-09-11T04:47:09.007Z,14.1
2017-09-11T04:48:11.111Z,14
2017-09-11T04:49:13.230Z,14
2017-09-11T04:50:15.793Z,14
2017-09-11T04:51:17.936Z,14
2017-09-11T04:52:20.045Z,14
2017-09-11T04:53:22.144Z,14
2017-09-11T04:54:24.313Z,14
2017-09-11T04:55:26.718Z,14
2017-09-11T04:56:28.928Z,14
2017-09-11T04:57:31.521Z,14
2017-09-11T04:58:33.681Z,14
2017-09-11T04:59:35.804Z,14
2017-09-11T05:00:38.318Z,14
2017-09-11T05:01:40.455Z,14
2017-09-11T05:02:42.621Z,14
2017-09-11T05:03:44.701Z,14
2017-09-11T05:04:46.761Z,14
2017-09-11T05:05:51.048Z,14
2017-09-11T05:06:53.132Z,13.9
2017-09-11T05:07:55.285Z,14
2017-09-11T05:08:57.385Z,13.9
2017-09-11T05:09:59.439Z,13.9
2017-09-11T05:11:02.053Z,13.9
2017-09-11T05:12:04.179Z,14
2017-09-11T05:13:06.278Z,13.8
2017-09-11T05:14:08.345Z,13.9
2017-09-11T05:15:10.453Z,13.9
2017-09-11T05:16:12.872Z,13.8
2017-09-11T05:17:15.104Z,13.8
2017-09-11T05:18:17.191Z,13.8
2017-09-11T05:19:19.267Z,13.7
2017-09-11T05:20:21.386Z,13.7
2017-09-11T05:21:23.869Z,13.6
2017-09-11T05:22:26.020Z,13.6
2017-09-11T05:23:28.071Z,13.7
2017-09-11T05:24:30.162Z,13.7
2017-09-11T05:25:35.777Z,13.7
2017-09-11T05:26:38.220Z,13.7
2017-09-11T05:27:40.327Z,13.8
2017-09-11T05:28:42.432Z,13.7
2017-09-11T05:29:45.087Z,13.7
2017-09-11T05:30:47.374Z,13.6
2017-09-11T05:31:50.932Z,13.6
2017-09-11T05:32:53.042Z,13.6
2017-09-11T05:33:55.151Z,13.6
2017-09-11T05:34:57.247Z,13.7
2017-09-11T05:35:59.332Z,13.7
2017-09-11T05:37:01.854Z,13.7
2017-09-11T05:38:03.982Z,13.6
2017-09-11T05:39:06.351Z,13.6
2017-09-11T05:40:08.722Z,13.7
2017-09-11T05:41:10.894Z,13.6
2017-09-11T05:42:13.294Z,13.7
2017-09-11T05:43:15.821Z,13.6
2017-09-11T05:44:17.896Z,13.7
2017-09-11T05:45:20.069Z,13.7
2017-09-11T05:46:22.190Z,13.6
2017-09-11T05:47:24.548Z,13.6
2017-09-11T05:48:26.670Z,13.4
2017-09-11T05:49:28.750Z,13.4
2017-09-11T05:50:30.898Z,13.4
2017-09-11T05:51:33.060Z,13.5
2017-09-11T05:52:35.630Z,13.4
2017-09-11T05:53:37.700Z,13.3
2017-09-11T05:54:40.103Z,13.4
2017-09-11T05:55:42.154Z,13.4
2017-09-11T05:56:44.274Z,13.3
2017-09-11T05:57:46.721Z,13.4
2017-09-11T05:58:48.822Z,13.3
2017-09-11T05:59:50.895Z,13.3
2017-09-11T06:00:53.188Z,13.4
2017-09-11T06:01:55.302Z,13.2
2017-09-11T06:02:57.708Z,13.2
2017-09-11T06:03:59.884Z,13.2
2017-09-11T06:05:02.141Z,13
2017-09-11T06:06:04.354Z,13
2017-09-11T06:07:06.430Z,13.1
2017-09-11T06:08:09.007Z,13.2
2017-09-11T06:09:11.121Z,13.3
2017-09-11T06:10:13.254Z,13.2
2017-09-11T06:11:15.366Z,13.2
2017-09-11T06:12:17.607Z,13.1
2017-09-11T06:13:22.256Z,12.9
2017-09-11T06:14:24.381Z,13
2017-09-11T06:15:27.413Z,13.1
2017-09-11T06:16:29.741Z,13
2017-09-11T06:17:32.037Z,12.9
2017-09-11T06:18:34.661Z,12.9
2017-09-11T06:19:36.824Z,12.9
2017-09-11T06:20:39.035Z,12.9
2017-09-11T06:21:41.354Z,12.8
2017-09-11T06:22:43.545Z,12.8
2017-09-11T06:23:46.352Z,12.8
2017-09-11T06:24:48.831Z,12.8
2017-09-11T06:25:54.079Z,12.8
2017-09-11T06:26:56.699Z,12.9
2017-09-11T06:27:58.924Z,12.7
2017-09-11T06:29:01.547Z,12.7
2017-09-11T06:30:03.631Z,12.8
2017-09-11T06:31:05.727Z,12.7
2017-09-11T06:32:07.923Z,12.7
2017-09-11T06:33:10.312Z,12.7
2017-09-11T06:34:13.025Z,12.7
2017-09-11T06:35:18.462Z,12.7
2017-09-11T06:36:20.568Z,12.8
2017-09-11T06:37:22.641Z,12.8
2017-09-11T06:38:24.736Z,12.7
2017-09-11T06:39:27.139Z,12.7
2017-09-11T06:40:29.263Z,12.7
2017-09-11T06:41:31.362Z,12.7
2017-09-11T06:42:33.446Z,12.9
2017-09-11T06:43:35.557Z,12.8
2017-09-11T06:44:41.065Z,12.8
2017-09-11T06:45:43.157Z,12.8
2017-09-11T06:46:45.462Z,12.9
2017-09-11T06:47:47.864Z,12.9
2017-09-11T06:48:49.929Z,12.8
2017-09-11T06:49:52.380Z,12.8
2017-09-11T06:50:54.518Z,12.9
2017-09-11T06:51:56.668Z,13
2017-09-11T06:52:58.751Z,13
2017-09-11T06:54:00.889Z,12.9
2017-09-11T06:55:03.355Z,12.9
2017-09-11T06:56:05.449Z,13
2017-09-11T06:57:07.852Z,13
2017-09-11T06:58:09.979Z,12.9
2017-09-11T06:59:12.310Z,13.1
2017-09-11T07:00:14.670Z,12.9
2017-09-11T07:01:16.821Z,13
2017-09-11T07:02:19.087Z,13.1
2017-09-11T07:03:21.356Z,13
2017-09-11T07:04:25.252Z,13.1
2017-09-11T07:05:27.685Z,13.1
2017-09-11T07:06:29.860Z,13
2017-09-11T07:07:31.998Z,13
2017-09-11T07:08:34.080Z,13
2017-09-11T07:09:36.232Z,13
2017-09-11T07:10:39.044Z,13.1
2017-09-11T07:11:41.270Z,13.1
2017-09-11T07:12:43.365Z,13.1
2017-09-11T07:13:45.447Z,13.1
2017-09-11T07:14:47.567Z,13.2
2017-09-11T07:15:50.929Z,13.3
2017-09-11T07:16:53.013Z,13.2
2017-09-11T07:17:55.152Z,13.2
2017-09-11T07:18:57.256Z,13.1
2017-09-11T07:19:59.344Z,13.1
2017-09-11T07:21:01.667Z,13.2
2017-09-11T07:22:03.799Z,13.2
2017-09-11T07:23:05.953Z,13.2
2017-09-11T07:24:08.031Z,13.2
2017-09-11T07:25:10.160Z,13.3
2017-09-11T07:26:12.515Z,13.1
2017-09-11T07:27:14.646Z,13.3
2017-09-11T07:28:16.751Z,13.3
2017-09-11T07:29:18.879Z,13.4
2017-09-11T07:30:20.980Z,13.4
2017-09-11T07:31:24.862Z,13.3
2017-09-11T07:32:26.934Z,13.4
2017-09-11T07:33:29.717Z,13.4
2017-09-11T07:34:31.792Z,13.4
2017-09-11T07:35:34.240Z,13.4
2017-09-11T07:36:36.625Z,13.4
2017-09-11T07:37:38.718Z,13.5
2017-09-11T07:38:40.847Z,13.4
2017-09-11T07:39:42.938Z,13.4
2017-09-11T07:40:45.010Z,13.4
2017-09-11T07:41:47.436Z,13.4
2017-09-11T07:42:49.623Z,13.4
2017-09-11T07:43:51.708Z,13.4
2017-09-11T07:44:53.799Z,13.3
2017-09-11T07:45:56.579Z,13.4
2017-09-11T07:46:59.004Z,13.5
2017-09-11T07:48:01.084Z,13.5
2017-09-11T07:49:03.221Z,13.4
2017-09-11T07:50:05.475Z,13.5
2017-09-11T07:51:07.569Z,13.5
2017-09-11T07:52:09.997Z,13.6
2017-09-11T07:53:12.093Z,13.5
2017-09-11T07:54:14.189Z,13.5
2017-09-11T07:55:16.511Z,13.6
2017-09-11T07:56:18.619Z,13.6
2017-09-11T07:57:21.232Z,13.6
2017-09-11T07:58:23.307Z,13.5
2017-09-11T07:59:25.411Z,13.5
2017-09-11T08:00:27.504Z,13.5
2017-09-11T08:01:29.632Z,13.5
2017-09-11T08:02:32.309Z,13.5
2017-09-11T08:03:34.423Z,13.5
2017-09-11T08:04:36.544Z,13.4
2017-09-11T08:05:38.663Z,13.5
2017-09-11T08:06:40.745Z,13.5
2017-09-11T08:07:42.894Z,13.4
2017-09-11T08:08:46.699Z,13.4
2017-09-11T08:09:48.799Z,13.4
2017-09-11T08:10:50.949Z,13.4
2017-09-11T08:11:53.082Z,13.4
2017-09-11T08:12:55.494Z,13.4
2017-09-11T08:13:57.675Z,13.3
2017-09-11T08:15:00.939Z,13.3
2017-09-11T08:16:03.083Z,13.4
2017-09-11T08:17:05.163Z,13.3
2017-09-11T08:18:07.600Z,13.4
2017-09-11T08:19:09.769Z,13.3
2017-09-11T08:20:11.868Z,13.5
2017-09-11T08:21:13.944Z,13.4
2017-09-11T08:22:16.056Z,13.6
2017-09-11T08:23:18.469Z,13.5
2017-09-11T08:24:20.608Z,13.5
2017-09-11T08:25:22.973Z,13.4
2017-09-11T08:26:25.189Z,13.5
2017-09-11T08:27:27.284Z,13.4
2017-09-11T08:28:29.704Z,13.4
2017-09-11T08:29:31.829Z,13.5
2017-09-11T08:30:33.906Z,13.4
2017-09-11T08:31:35.999Z,13.6
2017-09-11T08:32:38.160Z,13.7
2017-09-11T08:33:40.678Z,13.6
2017-09-11T08:34:42.752Z,13.5
2017-09-11T08:35:44.872Z,13.6
2017-09-11T08:36:47.012Z,13.5
2017-09-11T08:37:51.284Z,13.5
2017-09-11T08:38:53.757Z,13.6
2017-09-11T08:39:55.901Z,13.7
2017-09-11T08:40:58.053Z,13.8
2017-09-11T08:42:00.141Z,13.7
2017-09-11T08:43:04.071Z,13.7
2017-09-11T08:44:06.556Z,13.7
2017-09-11T08:45:08.639Z,13.7
2017-09-11T08:46:10.714Z,13.7
2017-09-11T08:47:12.862Z,13.8
2017-09-11T08:48:14.938Z,13.8
2017-09-11T08:49:17.376Z,13.8
2017-09-11T08:50:19.479Z,13.8
2017-09-11T08:51:21.650Z,13.8
2017-09-11T08:52:23.748Z,13.8
2017-09-11T08:53:25.881Z,13.8
2017-09-11T08:54:28.370Z,13.8
2017-09-11T08:55:30.486Z,13.9
2017-09-11T08:56:32.564Z,13.9
2017-09-11T08:57:34.666Z,14
2017-09-11T08:58:36.748Z,14
2017-09-11T08:59:39.111Z,14
2017-09-11T09:00:41.160Z,14
2017-09-11T09:01:43.266Z,14
2017-09-11T09:02:45.401Z,14
2017-09-11T09:03:47.512Z,13.9
2017-09-11T09:04:49.939Z,14
2017-09-11T09:05:52.099Z,14
2017-09-11T09:06:54.194Z,14.1
2017-09-11T09:07:56.291Z,14.2
2017-09-11T09:08:58.669Z,14.3
2017-09-11T09:10:01.082Z,14.1
2017-09-11T09:11:03.245Z,14.1
2017-09-11T09:12:05.384Z,14
2017-09-11T09:13:07.455Z,14
2017-09-11T09:14:10.898Z,14.2
2017-09-11T09:15:13.279Z,14.1
2017-09-11T09:16:15.550Z,14.2
2017-09-11T09:17:17.831Z,14.3
2017-09-11T09:18:19.928Z,14.2
2017-09-11T09:19:22.014Z,14.4
2017-09-11T09:20:24.402Z,14.4
2017-09-11T09:21:26.578Z,14.5
2017-09-11T09:22:28.784Z,14.6
2017-09-11T09:23:30.978Z,14.6
2017-09-11T09:24:33.696Z,14.8
2017-09-11T09:25:36.110Z,14.7
2017-09-11T09:26:38.245Z,14.8
2017-09-11T09:27:40.356Z,14.7
2017-09-11T09:28:42.448Z,14.6
2017-09-11T09:29:44.560Z,14.8
2017-09-11T09:30:46.962Z,14.7
2017-09-11T09:31:49.088Z,14.7
2017-09-11T09:32:51.210Z,14.5
2017-09-11T09:33:53.314Z,14.6
2017-09-11T09:34:57.074Z,14.8
2017-09-11T09:35:59.562Z,14.9
2017-09-11T09:37:01.675Z,14.9
2017-09-11T09:38:03.869Z,14.8
2017-09-11T09:39:06.082Z,14.8
2017-09-11T09:40:08.181Z,14.8
2017-09-11T09:41:10.642Z,14.7
2017-09-11T09:42:12.749Z,14.7
2017-09-11T09:43:14.898Z,14.5
2017-09-11T09:44:17.429Z,14.4
2017-09-11T09:45:19.602Z,14.1
2017-09-11T09:46:22.636Z,14
2017-09-11T09:47:24.768Z,14.3
2017-09-11T09:48:26.901Z,14.2
2017-09-11T09:49:29.066Z,14.2
2017-09-11T09:50:31.404Z,14.3
2017-09-11T09:51:33.976Z,14.2
2017-09-11T09:52:36.127Z,14.3
2017-09-11T09:53:38.291Z,14.3
2017-09-11T09:54:40.547Z,14.3
2017-09-11T09:55:42.798Z,14.3
2017-09-11T09:56:45.267Z,14.4
2017-09-11T09:57:47.361Z,14.3
2017-09-11T09:58:49.483Z,14.3
2017-09-11T09:59:51.612Z,14.4
2017-09-11T10:00:54.148Z,14.6
2017-09-11T10:01:56.578Z,14.4
2017-09-11T10:02:58.809Z,14.5
2017-09-11T10:04:00.917Z,14.5
2017-09-11T10:05:03.016Z,14.7
2017-09-11T10:06:05.250Z,14.8
2017-09-11T10:07:07.679Z,14.9
2017-09-11T10:08:09.770Z,14.9
2017-09-11T10:09:11.893Z,14.8
2017-09-11T10:10:14.084Z,14.9
2017-09-11T10:11:16.188Z,14.7
2017-09-11T10:12:19.684Z,14.8
2017-09-11T10:13:21.792Z,14.8
2017-09-11T10:14:23.938Z,15
2017-09-11T10:15:26.062Z,15.1
2017-09-11T10:16:28.213Z,15.1
2017-09-11T10:17:30.874Z,15.2
2017-09-11T10:18:33.010Z,15.4
2017-09-11T10:19:35.075Z,15.4
2017-09-11T10:20:39.977Z,15.3
2017-09-11T10:21:42.170Z,15.3
2017-09-11T10:22:44.597Z,15.1
2017-09-11T10:23:46.945Z,15.2
2017-09-11T10:24:49.091Z,15.3
2017-09-11T10:25:51.358Z,15.4
2017-09-11T10:26:53.838Z,15.3
2017-09-11T10:27:56.462Z,15.2
2017-09-11T10:28:58.600Z,15.3
2017-09-11T10:30:00.802Z,15.4
2017-09-11T10:31:02.951Z,15.5
2017-09-11T10:32:05.054Z,15.5
2017-09-11T10:33:07.610Z,15.3
2017-09-11T10:34:09.726Z,15.4
2017-09-11T10:35:11.898Z,15.5
2017-09-11T10:36:14.034Z,15.5
2017-09-11T10:37:16.135Z,15.5
2017-09-11T10:38:18.616Z,15.4
2017-09-11T10:39:20.827Z,15.3
2017-09-11T10:40:23.048Z,15.5
2017-09-11T10:41:26.376Z,15.7
2017-09-11T10:42:28.520Z,15.8
2017-09-11T10:43:31.065Z,15.8
2017-09-11T10:44:33.147Z,15.5
2017-09-11T10:45:35.262Z,15.7
2017-09-11T10:46:37.335Z,15.7
2017-09-11T10:47:39.528Z,15.8
2017-09-11T10:48:42.106Z,16.1
2017-09-11T10:49:44.508Z,16.1
2017-09-11T10:50:48.649Z,16.2
2017-09-11T10:51:50.908Z,16
2017-09-11T10:52:53.062Z,15.9
2017-09-11T10:53:55.615Z,15.9
2017-09-11T10:54:57.765Z,16.1
2017-09-11T10:56:01.090Z,16.4
2017-09-11T10:57:03.313Z,16.2
2017-09-11T10:58:05.460Z,15.9
2017-09-11T10:59:07.960Z,16
2017-09-11T11:00:11.010Z,16.1
2017-09-11T11:01:13.100Z,15.8
2017-09-11T11:02:15.251Z,15.9
2017-09-11T11:03:17.411Z,16
2017-09-11T11:04:19.932Z,16
2017-09-11T11:05:22.022Z,16.1
2017-09-11T11:06:24.182Z,16.1
2017-09-11T11:07:26.320Z,16.3
2017-09-11T11:08:28.488Z,16.3
2017-09-11T11:09:30.942Z,16
2017-09-11T11:10:35.478Z,16
2017-09-11T11:11:37.661Z,15.9
2017-09-11T11:12:39.981Z,16
2017-09-11T11:13:42.996Z,16
2017-09-11T11:14:45.524Z,15.7
2017-09-11T11:15:47.759Z,15.9
2017-09-11T11:16:50.058Z,15.9
2017-09-11T11:17:52.189Z,15.9
2017-09-11T11:18:55.068Z,15.8
2017-09-11T11:19:57.521Z,15.8
2017-09-11T11:20:59.660Z,15.7
2017-09-11T11:22:01.795Z,15.9
2017-09-11T11:23:03.896Z,15.8
2017-09-11T11:24:06.031Z,15.8
2017-09-11T11:25:08.538Z,15.8
2017-09-11T11:26:10.753Z,15.6
2017-09-11T11:27:12.988Z,15.6
2017-09-11T11:28:15.188Z,15.6
2017-09-11T11:29:17.637Z,15.6
2017-09-11T11:30:20.192Z,15.7
2017-09-11T11:31:22.366Z,15.8
2017-09-11T11:32:24.596Z,15.7
2017-09-11T11:33:26.805Z,15.5
2017-09-11T11:34:28.995Z,15.6
2017-09-11T11:35:31.463Z,15.6
2017-09-11T11:36:33.980Z,15.7
2017-09-11T11:37:36.156Z,15.9
2017-09-11T11:38:38.654Z,15.8
2017-09-11T11:39:40.751Z,16
2017-09-11T11:40:43.225Z,15.8
2017-09-11T11:41:46.592Z,15.8
2017-09-11T11:42:48.724Z,15.7
2017-09-11T11:43:50.894Z,15.8
2017-09-11T11:44:53.326Z,15.8
2017-09-11T11:45:55.893Z,15.8
2017-09-11T11:46:57.975Z,16
2017-09-11T11:48:00.100Z,16.3
2017-09-11T11:49:02.193Z,16.7
2017-09-11T11:50:04.304Z,17.1
2017-09-11T11:51:06.824Z,17.4
2017-09-11T11:52:09.699Z,17.5
2017-09-11T11:53:11.949Z,17
2017-09-11T11:54:14.049Z,17.2
2017-09-11T11:55:16.279Z,17.3
2017-09-11T11:56:18.654Z,17.5
2017-09-11T11:57:20.845Z,17.5
2017-09-11T11:58:23.036Z,17
2017-09-11T11:59:25.099Z,16.9
2017-09-11T12:00:27.256Z,17.5
2017-09-11T12:01:29.738Z,18.1
2017-09-11T12:02:31.875Z,17.8
2017-09-11T12:03:35.207Z,17.7
2017-09-11T12:04:37.319Z,18
2017-09-11T12:05:39.419Z,18
2017-09-11T12:06:41.858Z,17.9
2017-09-11T12:07:44.028Z,18
2017-09-11T12:08:46.192Z,18.4
2017-09-11T12:09:48.363Z,18.7
2017-09-11T12:10:50.486Z,18.3
2017-09-11T12:11:53.419Z,18.2
2017-09-11T12:12:55.481Z,18.3
2017-09-11T12:13:57.584Z,18.8
2017-09-11T12:14:59.713Z,18.8
2017-09-11T12:16:01.833Z,18.8
2017-09-11T12:17:03.945Z,19
2017-09-11T12:18:06.011Z,18.8
2017-09-11T12:19:09.585Z,19
2017-09-11T12:20:11.691Z,19
2017-09-11T12:21:13.826Z,19.1
2017-09-11T12:22:15.942Z,19
2017-09-11T12:23:18.160Z,19.3
2017-09-11T12:24:20.266Z,18.7
2017-09-11T12:25:22.367Z,18.4
2017-09-11T12:26:24.456Z,18.6
2017-09-11T12:27:26.832Z,18.3
2017-09-11T12:28:28.991Z,17.7
2017-09-11T12:29:31.116Z,18.4
2017-09-11T12:30:33.271Z,18.9
2017-09-11T12:31:35.432Z,18.9
2017-09-11T12:32:37.829Z,18.9
2017-09-11T12:33:39.963Z,19.4
2017-09-11T12:34:44.262Z,19.4
2017-09-11T12:35:46.339Z,19.6
2017-09-11T12:36:48.493Z,19.9
2017-09-11T12:37:50.918Z,19.9
2017-09-11T12:38:53.078Z,19.7
2017-09-11T12:39:55.176Z,19.4
2017-09-11T12:40:57.342Z,19
2017-09-11T12:41:59.499Z,19.2
2017-09-11T12:43:03.468Z,19.2
2017-09-11T12:44:05.570Z,19.4
2017-09-11T12:45:07.705Z,19.5
2017-09-11T12:46:09.820Z,19.1
2017-09-11T12:47:12.163Z,19.4
2017-09-11T12:48:14.554Z,19.5
2017-09-11T12:49:16.635Z,19.4
2017-09-11T12:50:18.776Z,19.7
2017-09-11T12:51:20.933Z,19.3
2017-09-11T12:52:22.996Z,19.4
2017-09-11T12:53:25.458Z,19.5
2017-09-11T12:54:31.177Z,19.5
2017-09-11T12:55:38.086Z,19.5
2017-09-11T12:56:43.783Z,18.7
2017-09-11T12:57:47.532Z,19
2017-09-11T12:58:49.941Z,19.4
2017-09-11T12:59:52.075Z,19
2017-09-11T13:00:57.865Z,18.6
2017-09-11T13:01:59.960Z,18.3
2017-09-11T13:03:02.133Z,17.9
2017-09-11T13:04:04.538Z,18.4
2017-09-11T13:05:06.791Z,18.9
2017-09-11T13:06:08.854Z,19.2
2017-09-11T13:07:10.998Z,18.3
2017-09-11T13:08:13.075Z,18.5
2017-09-11T13:09:15.558Z,18.9
2017-09-11T13:10:17.894Z,18.9
2017-09-11T13:11:20.070Z,19.1
2017-09-11T13:12:22.239Z,19.4
2017-09-11T13:13:24.308Z,19.6
2017-09-11T13:14:26.743Z,19.3
2017-09-11T13:15:31.754Z,19.4
2017-09-11T13:16:33.887Z,19.5
2017-09-11T13:17:36.002Z,19
2017-09-11T13:18:38.117Z,18.3
2017-09-11T13:19:40.498Z,18.3
2017-09-11T13:20:42.634Z,18.3
2017-09-11T13:21:44.801Z,18.4
2017-09-11T13:22:46.861Z,17.8
2017-09-11T13:23:49.017Z,18
2017-09-11T13:24:51.447Z,18.4
2017-09-11T13:25:53.654Z,18.6
2017-09-11T13:26:56.516Z,18.5
2017-09-11T13:27:58.674Z,18.2
2017-09-11T13:29:00.906Z,17.9
2017-09-11T13:30:03.639Z,18.5
2017-09-11T13:31:05.740Z,19.1
2017-09-11T13:32:07.891Z,19.1
2017-09-11T13:33:10.048Z,19
2017-09-11T13:34:12.208Z,18.6
2017-09-11T13:35:14.647Z,18.3
2017-09-11T13:36:16.856Z,18.6
2017-09-11T13:37:19.065Z,18.7
2017-09-11T13:38:21.184Z,18.8
2017-09-11T13:39:23.338Z,18.7
2017-09-11T13:40:25.869Z,18.9
2017-09-11T13:41:27.945Z,19.2
2017-09-11T13:42:30.067Z,19.2
2017-09-11T13:43:32.522Z,19.2
2017-09-11T13:44:34.684Z,19.2
2017-09-11T13:45:37.146Z,19.2
2017-09-11T13:46:39.270Z,19.2
2017-09-11T13:47:41.400Z,19.2
2017-09-11T13:48:43.556Z,19.4
2017-09-11T13:49:45.671Z,19.4
2017-09-11T13:50:48.141Z,19.1
2017-09-11T13:51:50.220Z,19.2
2017-09-11T13:52:52.342Z,19.5
2017-09-11T13:53:54.758Z,19.1
2017-09-11T13:54:57.303Z,18.7
2017-09-11T13:56:02.740Z,18.8
2017-09-11T13:57:04.829Z,18.6
2017-09-11T13:58:06.944Z,18.7